Time,TemperatureF,DewpointF,PressureIn,WindDirection,WindDirectionDegrees,WindSpeedMPH,WindSpeedGustMPH,Humidity,HourlyPrecipIn,Conditions,Clouds,dailyrainin,SoftwareType,DateUTC
2013-01-31 00:10:00,43.0,39.4,30.20,West,270,1.7,-999.0,87,-99.99,,,0.00,Acu-Link.com,2013-01-31 08:10:00,
2013-01-31 00:25:00,42.8,39.2,30.19,West,270,0.0,-999.0,87,-99.99,,,0.00,Acu-Link.com,2013-01-31 08:25:00,
2013-01-31 00:40:00,42.3,39.0,30.19,West,270,0.0,-999.0,88,-99.99,,,0.00,Acu-Link.com,2013-01-31 08:40:00,
2013-01-31 00:55:00,42.1,38.8,30.19,NW,315,0.0,-999.0,88,-99.99,,,0.00,Acu-Link.com,2013-01-31 08:55:00,
2013-01-31 01:16:00,42.3,39.3,30.19,West,270,1.7,-999.0,89,-99.99,,,0.00,Acu-Link.com,2013-01-31 09:16:00,
2013-01-31 01:31:00,42.1,39.1,30.19,WNW,292,1.1,-999.0,89,-99.99,,,0.00,Acu-Link.com,2013-01-31 09:31:00,
2013-01-31 01:46:00,41.5,38.8,30.19,NW,315,1.7,-999.0,90,-99.99,,,0.00,Acu-Link.com,2013-01-31 09:46:00,
2013-01-31 02:01:00,41.0,38.3,30.19,West,270,0.0,-999.0,90,-99.99,,,0.00,Acu-Link.com,2013-01-31 10:01:00,
2013-01-31 02:16:00,40.6,37.9,30.19,West,270,0.0,-999.0,90,-99.99,,,0.00,Acu-Link.com,2013-01-31 10:16:00,
2013-01-31 02:31:00,40.6,38.2,30.18,WNW,292,1.7,-999.0,91,-99.99,,,0.00,Acu-Link.com,2013-01-31 10:31:00,
2013-01-31 02:46:00,40.6,38.2,30.18,NW,315,0.0,-999.0,91,-99.99,,,0.00,Acu-Link.com,2013-01-31 10:46:00,
2013-01-31 03:01:00,40.5,38.1,30.18,West,270,0.0,-999.0,91,-99.99,,,0.00,Acu-Link.com,2013-01-31 11:01:00,
2013-01-31 03:16:00,40.3,37.9,30.18,West,270,0.0,-999.0,91,-99.99,,,0.00,Acu-Link.com,2013-01-31 11:16:00,
2013-01-31 03:31:00,40.8,38.7,30.18,NNW,337,2.2,-999.0,92,-99.99,,,0.00,Acu-Link.com,2013-01-31 11:31:00,
2013-01-31 03:47:00,40.5,38.4,30.17,WSW,247,1.1,-999.0,92,-99.99,,,0.00,Acu-Link.com,2013-01-31 11:47:00,
2013-01-31 04:02:00,40.1,38.0,30.17,West,270,1.1,-999.0,92,-99.99,,,0.00,Acu-Link.com,2013-01-31 12:02:00,
2013-01-31 04:17:00,39.9,37.8,30.18,West,270,1.7,-999.0,92,-99.99,,,0.00,Acu-Link.com,2013-01-31 12:17:00,
2013-01-31 04:32:00,39.9,37.8,30.18,WNW,292,1.7,-999.0,92,-99.99,,,0.00,Acu-Link.com,2013-01-31 12:32:00,
2013-01-31 04:47:00,39.9,38.0,30.18,WNW,292,1.7,-999.0,93,-99.99,,,0.00,Acu-Link.com,2013-01-31 12:47:00,
2013-01-31 05:02:00,39.6,37.7,30.18,WNW,292,1.1,-999.0,93,-99.99,,,0.00,Acu-Link.com,2013-01-31 13:02:00,
2013-01-31 05:17:00,39.6,37.7,30.18,West,270,0.0,-999.0,93,-99.99,,,0.00,Acu-Link.com,2013-01-31 13:17:00,
2013-01-31 05:32:00,39.2,37.3,30.18,West,270,0.0,-999.0,93,-99.99,,,0.00,Acu-Link.com,2013-01-31 13:32:00,
2013-01-31 05:47:00,39.4,37.5,30.18,West,270,1.1,-999.0,93,-99.99,,,0.00,Acu-Link.com,2013-01-31 13:47:00,
2013-01-31 06:03:00,39.6,38.0,30.18,NW,315,2.2,-999.0,94,-99.99,,,0.00,Acu-Link.com,2013-01-31 14:03:00,
2013-01-31 06:18:00,39.7,38.1,30.18,NW,315,1.7,-999.0,94,-99.99,,,0.00,Acu-Link.com,2013-01-31 14:18:00,
2013-01-31 06:33:00,39.6,38.0,30.18,West,270,0.0,-999.0,94,-99.99,,,0.00,Acu-Link.com,2013-01-31 14:33:00,
2013-01-31 06:48:00,39.6,38.0,30.18,West,270,0.0,-999.0,94,-99.99,,,0.00,Acu-Link.com,2013-01-31 14:48:00,
2013-01-31 07:03:00,39.7,38.1,30.18,West,270,1.1,-999.0,94,-99.99,,,0.00,Acu-Link.com,2013-01-31 15:03:00,
2013-01-31 07:18:00,39.4,37.8,30.20,West,270,0.0,-999.0,94,-99.99,,,0.00,Acu-Link.com,2013-01-31 15:18:00,
2013-01-31 07:33:00,39.0,37.4,30.20,West,270,0.0,-999.0,94,-99.99,,,0.00,Acu-Link.com,2013-01-31 15:33:00,
2013-01-31 07:48:00,39.6,38.0,30.20,WSW,247,1.7,-999.0,94,-99.99,,,0.00,Acu-Link.com,2013-01-31 15:48:00,
2013-01-31 08:03:00,40.3,38.7,30.20,WSW,247,0.0,-999.0,94,-99.99,,,0.00,Acu-Link.com,2013-01-31 16:03:00,
2013-01-31 08:19:00,45.7,43.5,30.20,NW,315,0.0,-999.0,92,-99.99,,,0.00,Acu-Link.com,2013-01-31 16:19:00,
2013-01-31 08:34:00,46.4,43.6,30.21,SW,225,0.0,-999.0,90,-99.99,,,0.00,Acu-Link.com,2013-01-31 16:34:00,
2013-01-31 08:49:00,51.3,46.9,30.20,SSE,157,1.1,-999.0,85,-99.99,,,0.00,Acu-Link.com,2013-01-31 16:49:00,
2013-01-31 09:04:00,52.7,47.7,30.20,ESE,112,1.7,-999.0,83,-99.99,,,0.00,Acu-Link.com,2013-01-31 17:04:00,
2013-01-31 09:19:00,54.0,47.6,30.20,ESE,112,3.2,-999.0,79,-99.99,,,0.00,Acu-Link.com,2013-01-31 17:19:00,
2013-01-31 09:34:00,55.0,47.9,30.20,SSE,157,1.1,-999.0,77,-99.99,,,0.00,Acu-Link.com,2013-01-31 17:34:00,
2013-01-31 09:49:00,56.5,47.2,30.20,NNE,22,3.2,-999.0,71,-99.99,,,0.00,Acu-Link.com,2013-01-31 17:49:00,
2013-01-31 10:05:00,57.7,47.2,30.21,South,180,4.7,-999.0,68,-99.99,,,0.00,Acu-Link.com,2013-01-31 18:05:00,
2013-01-31 10:20:00,58.5,46.4,30.21,SSW,202,2.2,-999.0,64,-99.99,,,0.00,Acu-Link.com,2013-01-31 18:20:00,
2013-01-31 10:35:00,59.5,46.0,30.20,SE,135,3.2,-999.0,61,-99.99,,,0.00,Acu-Link.com,2013-01-31 18:35:00,
2013-01-31 10:50:00,60.4,46.9,30.20,SE,135,2.2,-999.0,61,-99.99,,,0.00,Acu-Link.com,2013-01-31 18:50:00,
2013-01-31 11:05:00,61.2,46.3,30.19,WSW,247,3.7,-999.0,58,-99.99,,,0.00,Acu-Link.com,2013-01-31 19:05:00,
2013-01-31 11:20:00,62.1,47.1,30.18,NNW,337,0.0,-999.0,58,-99.99,,,0.00,Acu-Link.com,2013-01-31 19:20:00,
2013-01-31 11:35:00,63.0,46.6,30.18,South,180,2.7,-999.0,55,-99.99,,,0.00,Acu-Link.com,2013-01-31 19:35:00,
2013-01-31 11:50:00,63.7,46.7,30.17,SSE,157,3.7,-999.0,54,-99.99,,,0.00,Acu-Link.com,2013-01-31 19:50:00,
2013-01-31 12:06:00,64.6,46.6,30.17,ESE,112,5.8,-999.0,52,-99.99,,,0.00,Acu-Link.com,2013-01-31 20:06:00,
2013-01-31 12:21:00,64.9,45.8,30.16,NE,45,3.2,-999.0,50,-99.99,,,0.00,Acu-Link.com,2013-01-31 20:21:00,
2013-01-31 12:36:00,66.2,46.5,30.15,ESE,112,3.7,-999.0,49,-99.99,,,0.00,Acu-Link.com,2013-01-31 20:36:00,
2013-01-31 12:51:00,66.4,46.7,30.14,ESE,112,2.7,-999.0,49,-99.99,,,0.00,Acu-Link.com,2013-01-31 20:51:00,
2013-01-31 13:06:00,66.2,45.9,30.14,SSW,202,3.2,-999.0,48,-99.99,,,0.00,Acu-Link.com,2013-01-31 21:06:00,
2013-01-31 13:21:00,67.3,46.9,30.13,ESE,112,5.3,-999.0,48,-99.99,,,0.00,Acu-Link.com,2013-01-31 21:21:00,
2013-01-31 13:36:00,66.9,46.0,30.12,ESE,112,4.2,-999.0,47,-99.99,,,0.00,Acu-Link.com,2013-01-31 21:36:00,
2013-01-31 13:51:00,68.0,47.0,30.11,ESE,112,2.2,-999.0,47,-99.99,,,0.00,Acu-Link.com,2013-01-31 21:51:00,
2013-01-31 14:06:00,66.9,46.0,30.11,NE,45,3.7,-999.0,47,-99.99,,,0.00,Acu-Link.com,2013-01-31 22:06:00,
2013-01-31 14:22:00,68.9,47.8,30.11,ENE,67,3.2,-999.0,47,-99.99,,,0.00,Acu-Link.com,2013-01-31 22:22:00,
2013-01-31 14:37:00,67.6,46.6,30.10,ESE,112,3.2,-999.0,47,-99.99,,,0.00,Acu-Link.com,2013-01-31 22:37:00,
2013-01-31 14:52:00,69.3,48.2,30.10,SSE,157,1.7,-999.0,47,-99.99,,,0.00,Acu-Link.com,2013-01-31 22:52:00,
2013-01-31 15:07:00,68.0,46.4,30.10,ESE,112,2.2,-999.0,46,-99.99,,,0.00,Acu-Link.com,2013-01-31 23:07:00,
2013-01-31 15:22:00,67.8,45.7,30.10,ESE,112,2.7,-999.0,45,-99.99,,,0.00,Acu-Link.com,2013-01-31 23:22:00,
2013-01-31 15:37:00,67.8,46.3,30.10,South,180,3.7,-999.0,46,-99.99,,,0.00,Acu-Link.com,2013-01-31 23:37:00,
2013-01-31 15:52:00,68.4,45.6,30.10,NE,45,2.2,-999.0,44,-99.99,,,0.00,Acu-Link.com,2013-01-31 23:52:00,
2013-01-31 16:07:00,68.9,46.1,30.09,ESE,112,1.7,-999.0,44,-99.99,,,0.00,Acu-Link.com,2013-02-01 00:07:00,
2013-01-31 16:22:00,67.1,48.9,30.09,ESE,112,2.2,-999.0,52,-99.99,,,0.00,Acu-Link.com,2013-02-01 00:22:00,
2013-01-31 16:37:00,65.8,49.2,30.09,NE,45,0.0,-999.0,55,-99.99,,,0.00,Acu-Link.com,2013-02-01 00:37:00,
2013-01-31 16:53:00,62.2,47.7,30.09,SW,225,1.7,-999.0,59,-99.99,,,0.00,Acu-Link.com,2013-02-01 00:53:00,
2013-01-31 17:08:00,64.2,48.6,30.09,WSW,247,1.7,-999.0,57,-99.99,,,0.00,Acu-Link.com,2013-02-01 01:08:00,
2013-01-31 17:23:00,60.3,47.7,30.09,SW,225,1.7,-999.0,63,-99.99,,,0.00,Acu-Link.com,2013-02-01 01:23:00,
2013-01-31 17:38:00,57.6,47.1,30.08,WSW,247,2.2,-999.0,68,-99.99,,,0.00,Acu-Link.com,2013-02-01 01:38:00,
2013-01-31 17:53:00,55.9,46.6,30.08,WSW,247,0.0,-999.0,71,-99.99,,,0.00,Acu-Link.com,2013-02-01 01:53:00,
2013-01-31 18:08:00,54.3,45.8,30.08,WNW,292,0.0,-999.0,73,-99.99,,,0.00,Acu-Link.com,2013-02-01 02:08:00,
2013-01-31 18:23:00,52.7,45.3,30.10,WSW,247,1.7,-999.0,76,-99.99,,,0.00,Acu-Link.com,2013-02-01 02:23:00,
2013-01-31 18:38:00,51.6,44.6,30.09,SW,225,2.2,-999.0,77,-99.99,,,0.00,Acu-Link.com,2013-02-01 02:38:00,
2013-01-31 18:53:00,50.7,44.4,30.09,West,270,1.7,-999.0,79,-99.99,,,0.00,Acu-Link.com,2013-02-01 02:53:00,
2013-01-31 19:09:00,49.8,43.9,30.08,West,270,1.7,-999.0,80,-99.99,,,0.00,Acu-Link.com,2013-02-01 03:09:00,
2013-01-31 19:24:00,49.3,44.0,30.09,West,270,0.0,-999.0,82,-99.99,,,0.00,Acu-Link.com,2013-02-01 03:24:00,
2013-01-31 19:39:00,48.9,44.0,30.09,West,270,0.0,-999.0,83,-99.99,,,0.00,Acu-Link.com,2013-02-01 03:39:00,
2013-01-31 19:54:00,48.4,43.5,30.09,WSW,247,1.1,-999.0,83,-99.99,,,0.00,Acu-Link.com,2013-02-01 03:54:00,
2013-01-31 20:09:00,47.8,43.2,30.09,NW,315,0.0,-999.0,84,-99.99,,,0.00,Acu-Link.com,2013-02-01 04:09:00,
2013-01-31 20:24:00,47.5,43.2,30.09,West,270,1.1,-999.0,85,-99.99,,,0.00,Acu-Link.com,2013-02-01 04:24:00,
2013-01-31 20:40:00,47.3,43.3,30.08,NW,315,0.0,-999.0,86,-99.99,,,0.00,Acu-Link.com,2013-02-01 04:40:00,
2013-01-31 20:55:00,46.9,42.9,30.08,West,270,0.0,-999.0,86,-99.99,,,0.00,Acu-Link.com,2013-02-01 04:55:00,
2013-01-31 21:10:00,46.2,42.5,30.09,West,270,0.0,-999.0,87,-99.99,,,0.00,Acu-Link.com,2013-02-01 05:10:00,
2013-01-31 21:25:00,45.9,42.5,30.09,West,270,1.1,-999.0,88,-99.99,,,0.00,Acu-Link.com,2013-02-01 05:25:00,
2013-01-31 21:40:00,45.5,42.2,30.09,WNW,292,1.1,-999.0,88,-99.99,,,0.00,Acu-Link.com,2013-02-01 05:40:00,
2013-01-31 21:55:00,45.3,42.3,30.09,NW,315,2.2,-999.0,89,-99.99,,,0.00,Acu-Link.com,2013-02-01 05:55:00,
2013-01-31 22:10:00,45.3,42.3,30.09,SSW,202,1.1,-999.0,89,-99.99,,,0.00,Acu-Link.com,2013-02-01 06:10:00,
2013-01-31 22:25:00,44.6,41.6,30.09,NW,315,0.0,-999.0,89,-99.99,,,0.00,Acu-Link.com,2013-02-01 06:25:00,
2013-01-31 22:40:00,44.6,41.9,30.10,West,270,1.7,-999.0,90,-99.99,,,0.00,Acu-Link.com,2013-02-01 06:40:00,
2013-01-31 22:56:00,44.4,41.7,30.09,NW,315,0.0,-999.0,90,-99.99,,,0.00,Acu-Link.com,2013-02-01 06:56:00,
2013-01-31 23:11:00,44.4,41.9,30.09,NW,315,1.7,-999.0,91,-99.99,,,0.00,Acu-Link.com,2013-02-01 07:11:00,
2013-01-31 23:26:00,44.1,41.6,30.10,NW,315,0.0,-999.0,91,-99.99,,,0.00,Acu-Link.com,2013-02-01 07:26:00,
2013-01-31 23:41:00,43.7,41.2,30.09,West,270,0.0,-999.0,91,-99.99,,,0.00,Acu-Link.com,2013-02-01 07:41:00,
2013-01-31 23:56:00,43.3,40.9,30.09,WNW,292,0.0,-999.0,91,-99.99,,,0.00,Acu-Link.com,2013-02-01 07:56:00,